KCKV

Outlaw Field Airport

Clarksville, Tennessee, USA
KCKV 171134Z 1712/1812 29004KT P6SM SKC FM171500 31007KT P6SM SCT040 BKN200 FM180000 36003KT P6SM SKC
Issued Valid From Valid To
Dec-17 @ 11:34 UTC
(33 minutes ago)
Dec-17 @ 12:00 UTC
(7 minutes ago)
Dec-18 @ 12:00 UTC
(in 24 hours)
Dec-17 @ 12:00 to Dec-17 @ 15:00
KCKV 171134Z 1712/1812 29004KT P6SM SKC
Wind Visibility Clouds
290° at 4 knots Greater than 6 miles
  • Clear skies
From Dec-17 @ 15:00 to Dec-18 @ 00:00
FM171500 31007KT P6SM SCT040 BKN200
Wind Visibility Clouds
310° at 7 knots Greater than 6 miles
  • Scattered at 4,000' AGL
  • Broken at 20,000' AGL
From Dec-18 @ 00:00 to Dec-18 @ 12:00
FM180000 36003KT P6SM SKC
Wind Visibility Clouds
360° at 3 knots Greater than 6 miles
  • Clear skies
KCKV 171134Z 1712/1812 29004KT P6SM SKC FM171500 31007KT P6SM SCT040 BKN200 FM180000 36003KT P6SM SKC
Issued Dec-17 @ 11:34 UTC
(33 minutes ago)
Valid From Dec-17 @ 12:00 UTC
(7 minutes ago)
Valid To Dec-18 @ 12:00 UTC
(in 24 hours)
Dec-17 @ 12:00 - Dec-17 @ 15:00
Wind Visibility
290° at 4 knots Greater than 6 miles
Clouds
  • Clear skies
From Dec-17 @ 15:00 - Dec-18 @ 00:00
Wind Visibility
310° at 7 knots Greater than 6 miles
Clouds
  • Scattered at 4,000' AGL
  • Broken at 20,000' AGL
From Dec-18 @ 00:00 - Dec-18 @ 12:00
Wind Visibility
360° at 3 knots Greater than 6 miles
Clouds
  • Clear skies